sensor_id;sensor_type;location;lat;lon;timestamp;P1;durP1;ratioP1;P2;durP2;ratioP2
76745;SDS011;65671;49.976;20.038;2023-11-19T00:02:55;24.33;;;12.00;;
76745;SDS011;65671;49.976;20.038;2023-11-19T00:07:46;25.60;;;10.70;;
76745;SDS011;65671;49.976;20.038;2023-11-19T00:12:41;22.35;;;10.27;;
76745;SDS011;65671;49.976;20.038;2023-11-19T00:15:09;21.35;;;10.27;;
76745;SDS011;65671;49.976;20.038;2023-11-19T00:17:39;22.00;;;10.63;;
76745;SDS011;65671;49.976;20.038;2023-11-19T00:20:09;22.23;;;11.38;;
76745;SDS011;65671;49.976;20.038;2023-11-19T00:22:36;21.50;;;11.65;;
76745;SDS011;65671;49.976;20.038;2023-11-19T00:27:27;23.77;;;12.13;;
76745;SDS011;65671;49.976;20.038;2023-11-19T00:32:18;22.08;;;9.85;;
76745;SDS011;65671;49.976;20.038;2023-11-19T00:37:09;27.13;;;11.10;;
76745;SDS011;65671;49.976;20.038;2023-11-19T00:42:00;26.48;;;10.80;;
76745;SDS011;65671;49.976;20.038;2023-11-19T00:44:26;21.80;;;11.20;;
76745;SDS011;65671;49.976;20.038;2023-11-19T00:49:16;20.80;;;9.57;;
76745;SDS011;65671;49.976;20.038;2023-11-19T00:54:07;23.40;;;9.80;;
76745;SDS011;65671;49.976;20.038;2023-11-19T00:56:33;18.15;;;10.18;;
76745;SDS011;65671;49.976;20.038;2023-11-19T00:58:58;19.75;;;10.10;;
76745;SDS011;65671;49.976;20.038;2023-11-19T01:01:25;21.02;;;10.68;;
76745;SDS011;65671;49.976;20.038;2023-11-19T01:06:26;20.97;;;10.73;;
76745;SDS011;65671;49.976;20.038;2023-11-19T01:08:52;21.70;;;11.73;;
76745;SDS011;65671;49.976;20.038;2023-11-19T01:13:46;18.95;;;9.80;;
76745;SDS011;65671;49.976;20.038;2023-11-19T01:18:38;21.75;;;9.00;;
76745;SDS011;65671;49.976;20.038;2023-11-19T01:23:29;22.40;;;11.82;;
76745;SDS011;65671;49.976;20.038;2023-11-19T01:28:20;22.43;;;10.33;;
76745;SDS011;65671;49.976;20.038;2023-11-19T01:33:11;18.08;;;10.80;;
76745;SDS011;65671;49.976;20.038;2023-11-19T01:35:36;21.65;;;10.45;;
76745;SDS011;65671;49.976;20.038;2023-11-19T01:38:02;21.98;;;10.82;;
76745;SDS011;65671;49.976;20.038;2023-11-19T01:40:27;21.52;;;11.85;;
76745;SDS011;65671;49.976;20.038;2023-11-19T01:42:53;26.75;;;13.52;;
76745;SDS011;65671;49.976;20.038;2023-11-19T01:45:38;24.70;;;12.52;;
76745;SDS011;65671;49.976;20.038;2023-11-19T01:48:04;28.85;;;12.23;;
76745;SDS011;65671;49.976;20.038;2023-11-19T01:52:57;25.33;;;11.75;;
76745;SDS011;65671;49.976;20.038;2023-11-19T01:57:49;24.50;;;11.27;;
76745;SDS011;65671;49.976;20.038;2023-11-19T02:00:16;27.45;;;13.52;;
76745;SDS011;65671;49.976;20.038;2023-11-19T02:02:44;22.30;;;10.98;;
76745;SDS011;65671;49.976;20.038;2023-11-19T02:05:11;26.55;;;12.88;;
76745;SDS011;65671;49.976;20.038;2023-11-19T02:07:38;25.17;;;12.50;;
76745;SDS011;65671;49.976;20.038;2023-11-19T02:12:30;26.30;;;11.55;;
76745;SDS011;65671;49.976;20.038;2023-11-19T02:15:01;25.42;;;12.95;;
76745;SDS011;65671;49.976;20.038;2023-11-19T02:17:31;22.83;;;11.80;;
76745;SDS011;65671;49.976;20.038;2023-11-19T02:19:57;28.27;;;11.70;;
76745;SDS011;65671;49.976;20.038;2023-11-19T02:22:23;23.85;;;10.82;;
76745;SDS011;65671;49.976;20.038;2023-11-19T02:27:25;25.23;;;11.13;;
76745;SDS011;65671;49.976;20.038;2023-11-19T02:30:14;24.25;;;9.63;;
76745;SDS011;65671;49.976;20.038;2023-11-19T02:35:27;22.45;;;10.18;;
76745;SDS011;65671;49.976;20.038;2023-11-19T02:38:01;20.55;;;10.77;;
76745;SDS011;65671;49.976;20.038;2023-11-19T02:40:29;24.92;;;11.93;;
76745;SDS011;65671;49.976;20.038;2023-11-19T02:42:55;25.15;;;11.90;;
76745;SDS011;65671;49.976;20.038;2023-11-19T02:45:23;24.60;;;12.02;;
76745;SDS011;65671;49.976;20.038;2023-11-19T02:47:50;20.75;;;11.00;;
76745;SDS011;65671;49.976;20.038;2023-11-19T02:50:16;26.05;;;11.75;;
76745;SDS011;65671;49.976;20.038;2023-11-19T02:52:46;27.30;;;12.02;;
76745;SDS011;65671;49.976;20.038;2023-11-19T02:55:13;35.50;;;12.38;;
76745;SDS011;65671;49.976;20.038;2023-11-19T03:00:14;24.92;;;12.10;;
76745;SDS011;65671;49.976;20.038;2023-11-19T03:02:44;24.85;;;12.27;;
76745;SDS011;65671;49.976;20.038;2023-11-19T03:05:19;28.27;;;12.43;;
76745;SDS011;65671;49.976;20.038;2023-11-19T03:10:10;27.55;;;12.13;;
76745;SDS011;65671;49.976;20.038;2023-11-19T03:12:40;32.72;;;13.73;;
76745;SDS011;65671;49.976;20.038;2023-11-19T03:15:06;24.98;;;12.88;;
76745;SDS011;65671;49.976;20.038;2023-11-19T03:17:32;24.17;;;13.02;;
76745;SDS011;65671;49.976;20.038;2023-11-19T03:19:59;28.45;;;12.10;;
76745;SDS011;65671;49.976;20.038;2023-11-19T03:22:26;27.02;;;12.98;;
76745;SDS011;65671;49.976;20.038;2023-11-19T03:27:17;22.85;;;11.32;;
76745;SDS011;65671;49.976;20.038;2023-11-19T03:32:08;24.85;;;12.27;;
76745;SDS011;65671;49.976;20.038;2023-11-19T03:36:59;24.95;;;10.88;;
76745;SDS011;65671;49.976;20.038;2023-11-19T03:39:24;25.70;;;12.80;;
76745;SDS011;65671;49.976;20.038;2023-11-19T03:41:50;24.02;;;12.45;;
76745;SDS011;65671;49.976;20.038;2023-11-19T03:44:16;24.63;;;11.85;;
76745;SDS011;65671;49.976;20.038;2023-11-19T03:49:07;27.27;;;12.38;;
76745;SDS011;65671;49.976;20.038;2023-11-19T03:53:59;23.45;;;11.63;;
76745;SDS011;65671;49.976;20.038;2023-11-19T03:58:50;27.40;;;11.33;;
76745;SDS011;65671;49.976;20.038;2023-11-19T04:03:41;26.95;;;11.93;;
76745;SDS011;65671;49.976;20.038;2023-11-19T04:06:06;26.23;;;12.02;;
76745;SDS011;65671;49.976;20.038;2023-11-19T04:10:57;26.15;;;10.93;;
76745;SDS011;65671;49.976;20.038;2023-11-19T04:15:49;24.73;;;12.35;;
76745;SDS011;65671;49.976;20.038;2023-11-19T04:20:41;27.13;;;10.48;;
76745;SDS011;65671;49.976;20.038;2023-11-19T04:23:07;24.80;;;12.90;;
76745;SDS011;65671;49.976;20.038;2023-11-19T04:25:34;27.23;;;13.25;;
76745;SDS011;65671;49.976;20.038;2023-11-19T04:28:00;24.85;;;13.50;;
76745;SDS011;65671;49.976;20.038;2023-11-19T04:30:27;25.42;;;12.43;;
76745;SDS011;65671;49.976;20.038;2023-11-19T04:35:30;21.67;;;11.97;;
76745;SDS011;65671;49.976;20.038;2023-11-19T04:38:01;33.38;;;13.57;;
76745;SDS011;65671;49.976;20.038;2023-11-19T04:42:52;23.20;;;11.32;;
76745;SDS011;65671;49.976;20.038;2023-11-19T04:47:43;23.07;;;10.30;;
76745;SDS011;65671;49.976;20.038;2023-11-19T04:52:38;26.08;;;12.27;;
76745;SDS011;65671;49.976;20.038;2023-11-19T04:55:10;26.08;;;11.05;;
76745;SDS011;65671;49.976;20.038;2023-11-19T04:57:36;23.50;;;11.52;;
76745;SDS011;65671;49.976;20.038;2023-11-19T05:02:30;22.30;;;11.05;;
76745;SDS011;65671;49.976;20.038;2023-11-19T05:07:21;27.05;;;11.48;;
76745;SDS011;65671;49.976;20.038;2023-11-19T05:09:46;24.80;;;11.13;;
76745;SDS011;65671;49.976;20.038;2023-11-19T05:12:12;25.17;;;12.07;;
76745;SDS011;65671;49.976;20.038;2023-11-19T05:17:03;20.77;;;10.45;;
76745;SDS011;65671;49.976;20.038;2023-11-19T05:21:54;20.52;;;11.38;;
76745;SDS011;65671;49.976;20.038;2023-11-19T05:26:45;25.10;;;12.50;;
76745;SDS011;65671;49.976;20.038;2023-11-19T05:31:36;25.20;;;11.83;;
76745;SDS011;65671;49.976;20.038;2023-11-19T05:36:26;23.50;;;10.60;;
76745;SDS011;65671;49.976;20.038;2023-11-19T05:39:01;24.08;;;11.70;;
76745;SDS011;65671;49.976;20.038;2023-11-19T05:41:28;25.13;;;11.68;;
76745;SDS011;65671;49.976;20.038;2023-11-19T05:43:54;21.27;;;10.68;;
76745;SDS011;65671;49.976;20.038;2023-11-19T05:48:45;25.23;;;11.50;;
76745;SDS011;65671;49.976;20.038;2023-11-19T05:51:11;22.45;;;10.05;;
76745;SDS011;65671;49.976;20.038;2023-11-19T05:56:03;22.05;;;10.00;;
76745;SDS011;65671;49.976;20.038;2023-11-19T06:00:55;21.63;;;9.88;;
76745;SDS011;65671;49.976;20.038;2023-11-19T06:03:21;23.67;;;12.13;;
76745;SDS011;65671;49.976;20.038;2023-11-19T06:08:13;19.40;;;9.85;;
76745;SDS011;65671;49.976;20.038;2023-11-19T06:13:05;26.30;;;11.65;;
76745;SDS011;65671;49.976;20.038;2023-11-19T06:15:31;22.85;;;10.80;;
76745;SDS011;65671;49.976;20.038;2023-11-19T06:17:58;22.08;;;9.73;;
76745;SDS011;65671;49.976;20.038;2023-11-19T06:20:28;20.63;;;9.75;;
76745;SDS011;65671;49.976;20.038;2023-11-19T06:22:56;16.40;;;9.40;;
76745;SDS011;65671;49.976;20.038;2023-11-19T06:25:22;23.25;;;11.13;;
76745;SDS011;65671;49.976;20.038;2023-11-19T06:27:49;22.48;;;10.55;;
76745;SDS011;65671;49.976;20.038;2023-11-19T06:30:15;22.55;;;11.00;;
76745;SDS011;65671;49.976;20.038;2023-11-19T06:32:41;18.80;;;9.55;;
76745;SDS011;65671;49.976;20.038;2023-11-19T06:37:41;19.60;;;9.55;;
76745;SDS011;65671;49.976;20.038;2023-11-19T06:42:34;17.83;;;8.82;;
76745;SDS011;65671;49.976;20.038;2023-11-19T06:47:25;20.50;;;9.10;;
76745;SDS011;65671;49.976;20.038;2023-11-19T06:49:52;17.58;;;8.90;;
76745;SDS011;65671;49.976;20.038;2023-11-19T06:54:44;16.08;;;7.70;;
76745;SDS011;65671;49.976;20.038;2023-11-19T06:57:10;14.73;;;7.72;;
76745;SDS011;65671;49.976;20.038;2023-11-19T06:59:36;17.40;;;8.25;;
76745;SDS011;65671;49.976;20.038;2023-11-19T07:04:28;13.73;;;8.00;;
76745;SDS011;65671;49.976;20.038;2023-11-19T07:09:18;15.30;;;6.53;;
76745;SDS011;65671;49.976;20.038;2023-11-19T07:14:10;10.98;;;6.53;;
76745;SDS011;65671;49.976;20.038;2023-11-19T07:19:05;11.32;;;6.00;;
76745;SDS011;65671;49.976;20.038;2023-11-19T07:21:31;14.13;;;6.95;;
76745;SDS011;65671;49.976;20.038;2023-11-19T07:23:58;13.18;;;7.93;;
76745;SDS011;65671;49.976;20.038;2023-11-19T07:28:49;15.75;;;7.47;;
76745;SDS011;65671;49.976;20.038;2023-11-19T07:31:16;15.15;;;7.53;;
76745;SDS011;65671;49.976;20.038;2023-11-19T07:33:44;15.65;;;7.63;;
76745;SDS011;65671;49.976;20.038;2023-11-19T07:36:10;12.25;;;6.20;;
76745;SDS011;65671;49.976;20.038;2023-11-19T07:38:54;12.52;;;6.95;;
76745;SDS011;65671;49.976;20.038;2023-11-19T07:41:22;12.95;;;7.18;;
76745;SDS011;65671;49.976;20.038;2023-11-19T07:43:50;12.88;;;6.95;;
76745;SDS011;65671;49.976;20.038;2023-11-19T07:46:16;13.25;;;6.50;;
76745;SDS011;65671;49.976;20.038;2023-11-19T07:48:44;11.77;;;6.28;;
76745;SDS011;65671;49.976;20.038;2023-11-19T07:51:12;11.77;;;6.30;;
76745;SDS011;65671;49.976;20.038;2023-11-19T07:53:38;11.52;;;6.28;;
76745;SDS011;65671;49.976;20.038;2023-11-19T07:56:05;14.40;;;7.18;;
76745;SDS011;65671;49.976;20.038;2023-11-19T08:00:56;12.52;;;6.88;;
76745;SDS011;65671;49.976;20.038;2023-11-19T08:03:21;9.65;;;5.70;;
76745;SDS011;65671;49.976;20.038;2023-11-19T08:08:12;12.15;;;6.82;;
76745;SDS011;65671;49.976;20.038;2023-11-19T08:10:38;13.55;;;8.00;;
76745;SDS011;65671;49.976;20.038;2023-11-19T08:13:05;13.55;;;6.63;;
76745;SDS011;65671;49.976;20.038;2023-11-19T08:15:31;13.30;;;6.80;;
76745;SDS011;65671;49.976;20.038;2023-11-19T08:20:22;12.30;;;6.38;;
76745;SDS011;65671;49.976;20.038;2023-11-19T08:22:48;13.20;;;6.25;;
76745;SDS011;65671;49.976;20.038;2023-11-19T08:27:39;13.35;;;7.55;;
76745;SDS011;65671;49.976;20.038;2023-11-19T08:30:05;13.57;;;7.80;;
76745;SDS011;65671;49.976;20.038;2023-11-19T08:32:31;14.45;;;7.55;;
76745;SDS011;65671;49.976;20.038;2023-11-19T08:37:22;13.60;;;7.83;;
76745;SDS011;65671;49.976;20.038;2023-11-19T08:42:13;12.43;;;6.10;;
76745;SDS011;65671;49.976;20.038;2023-11-19T08:44:39;12.13;;;6.13;;
76745;SDS011;65671;49.976;20.038;2023-11-19T08:47:08;11.30;;;6.85;;
76745;SDS011;65671;49.976;20.038;2023-11-19T08:49:34;12.57;;;6.50;;
76745;SDS011;65671;49.976;20.038;2023-11-19T08:52:00;11.52;;;7.25;;
76745;SDS011;65671;49.976;20.038;2023-11-19T08:54:25;19.02;;;8.38;;
76745;SDS011;65671;49.976;20.038;2023-11-19T08:56:51;13.13;;;7.10;;
76745;SDS011;65671;49.976;20.038;2023-11-19T08:59:16;12.65;;;6.88;;
76745;SDS011;65671;49.976;20.038;2023-11-19T09:01:42;13.45;;;7.53;;
76745;SDS011;65671;49.976;20.038;2023-11-19T09:06:34;11.85;;;7.38;;
76745;SDS011;65671;49.976;20.038;2023-11-19T09:09:00;10.95;;;6.32;;
76745;SDS011;65671;49.976;20.038;2023-11-19T09:11:28;15.18;;;7.10;;
76745;SDS011;65671;49.976;20.038;2023-11-19T09:13:54;13.45;;;6.40;;
76745;SDS011;65671;49.976;20.038;2023-11-19T09:16:19;12.82;;;7.00;;
76745;SDS011;65671;49.976;20.038;2023-11-19T09:18:45;12.82;;;7.13;;
76745;SDS011;65671;49.976;20.038;2023-11-19T09:21:11;12.95;;;7.32;;
76745;SDS011;65671;49.976;20.038;2023-11-19T09:23:37;11.90;;;6.95;;
76745;SDS011;65671;49.976;20.038;2023-11-19T09:26:04;13.43;;;7.28;;
76745;SDS011;65671;49.976;20.038;2023-11-19T09:28:30;15.75;;;6.78;;
76745;SDS011;65671;49.976;20.038;2023-11-19T09:30:56;11.10;;;6.97;;
76745;SDS011;65671;49.976;20.038;2023-11-19T09:33:22;14.90;;;7.10;;
76745;SDS011;65671;49.976;20.038;2023-11-19T09:35:47;14.68;;;7.15;;
76745;SDS011;65671;49.976;20.038;2023-11-19T09:38:16;13.35;;;7.32;;
76745;SDS011;65671;49.976;20.038;2023-11-19T09:40:42;13.85;;;8.80;;
76745;SDS011;65671;49.976;20.038;2023-11-19T09:43:07;13.30;;;7.93;;
76745;SDS011;65671;49.976;20.038;2023-11-19T09:45:42;13.05;;;7.43;;
76745;SDS011;65671;49.976;20.038;2023-11-19T09:48:14;15.77;;;7.28;;
76745;SDS011;65671;49.976;20.038;2023-11-19T09:50:47;15.15;;;7.63;;
76745;SDS011;65671;49.976;20.038;2023-11-19T09:53:14;14.93;;;7.82;;
76745;SDS011;65671;49.976;20.038;2023-11-19T09:55:40;15.57;;;8.75;;
76745;SDS011;65671;49.976;20.038;2023-11-19T09:58:07;11.02;;;6.28;;
76745;SDS011;65671;49.976;20.038;2023-11-19T10:00:33;12.88;;;7.10;;
76745;SDS011;65671;49.976;20.038;2023-11-19T10:02:59;15.10;;;7.72;;
76745;SDS011;65671;49.976;20.038;2023-11-19T10:05:25;13.93;;;7.45;;
76745;SDS011;65671;49.976;20.038;2023-11-19T10:07:51;14.23;;;7.47;;
76745;SDS011;65671;49.976;20.038;2023-11-19T10:10:17;13.10;;;7.20;;
76745;SDS011;65671;49.976;20.038;2023-11-19T10:12:47;12.13;;;6.63;;
76745;SDS011;65671;49.976;20.038;2023-11-19T10:15:23;11.82;;;6.78;;
76745;SDS011;65671;49.976;20.038;2023-11-19T10:17:50;12.70;;;6.88;;
76745;SDS011;65671;49.976;20.038;2023-11-19T10:20:16;15.32;;;6.95;;
76745;SDS011;65671;49.976;20.038;2023-11-19T10:22:42;13.10;;;7.00;;
76745;SDS011;65671;49.976;20.038;2023-11-19T10:25:24;11.07;;;6.78;;
76745;SDS011;65671;49.976;20.038;2023-11-19T10:27:54;14.32;;;7.78;;
76745;SDS011;65671;49.976;20.038;2023-11-19T10:30:21;13.48;;;7.30;;
76745;SDS011;65671;49.976;20.038;2023-11-19T10:35:36;11.73;;;7.03;;
76745;SDS011;65671;49.976;20.038;2023-11-19T10:38:25;13.25;;;6.35;;
76745;SDS011;65671;49.976;20.038;2023-11-19T10:40:52;12.73;;;6.70;;
76745;SDS011;65671;49.976;20.038;2023-11-19T10:43:18;11.45;;;7.10;;
76745;SDS011;65671;49.976;20.038;2023-11-19T10:45:45;11.50;;;6.90;;
76745;SDS011;65671;49.976;20.038;2023-11-19T10:48:10;12.07;;;6.57;;
76745;SDS011;65671;49.976;20.038;2023-11-19T10:50:38;13.68;;;6.50;;
76745;SDS011;65671;49.976;20.038;2023-11-19T10:53:04;12.07;;;6.55;;
76745;SDS011;65671;49.976;20.038;2023-11-19T10:55:35;12.48;;;6.68;;
76745;SDS011;65671;49.976;20.038;2023-11-19T10:58:06;10.15;;;5.75;;
76745;SDS011;65671;49.976;20.038;2023-11-19T11:00:38;10.40;;;5.18;;
76745;SDS011;65671;49.976;20.038;2023-11-19T11:03:20;11.13;;;6.03;;
76745;SDS011;65671;49.976;20.038;2023-11-19T11:05:50;8.23;;;6.05;;
76745;SDS011;65671;49.976;20.038;2023-11-19T11:08:17;11.70;;;6.80;;
76745;SDS011;65671;49.976;20.038;2023-11-19T11:10:45;12.13;;;5.70;;
76745;SDS011;65671;49.976;20.038;2023-11-19T11:13:13;11.27;;;5.70;;
76745;SDS011;65671;49.976;20.038;2023-11-19T11:15:39;10.57;;;5.32;;
76745;SDS011;65671;49.976;20.038;2023-11-19T11:18:08;10.60;;;5.65;;
76745;SDS011;65671;49.976;20.038;2023-11-19T11:20:34;12.95;;;5.88;;
76745;SDS011;65671;49.976;20.038;2023-11-19T11:23:24;11.68;;;6.45;;
76745;SDS011;65671;49.976;20.038;2023-11-19T11:29:10;11.23;;;5.82;;
76745;SDS011;65671;49.976;20.038;2023-11-19T11:31:53;12.10;;;6.63;;
76745;SDS011;65671;49.976;20.038;2023-11-19T11:37:22;9.93;;;5.55;;
76745;SDS011;65671;49.976;20.038;2023-11-19T11:40:08;10.75;;;6.22;;
76745;SDS011;65671;49.976;20.038;2023-11-19T11:42:41;10.43;;;5.35;;
76745;SDS011;65671;49.976;20.038;2023-11-19T11:45:08;11.77;;;5.65;;
76745;SDS011;65671;49.976;20.038;2023-11-19T11:50:14;11.07;;;5.70;;
76745;SDS011;65671;49.976;20.038;2023-11-19T11:58:21;11.07;;;5.70;;
76745;SDS011;65671;49.976;20.038;2023-11-19T12:00:57;10.95;;;5.10;;
76745;SDS011;65671;49.976;20.038;2023-11-19T12:03:23;10.05;;;5.95;;
76745;SDS011;65671;49.976;20.038;2023-11-19T12:05:51;8.93;;;5.40;;
76745;SDS011;65671;49.976;20.038;2023-11-19T12:08:18;11.50;;;5.53;;
76745;SDS011;65671;49.976;20.038;2023-11-19T12:10:48;8.32;;;4.97;;
76745;SDS011;65671;49.976;20.038;2023-11-19T12:13:16;10.65;;;5.35;;
76745;SDS011;65671;49.976;20.038;2023-11-19T12:18:30;7.22;;;4.40;;
76745;SDS011;65671;49.976;20.038;2023-11-19T12:21:06;8.68;;;5.10;;
76745;SDS011;65671;49.976;20.038;2023-11-19T12:23:52;7.22;;;4.35;;
76745;SDS011;65671;49.976;20.038;2023-11-19T12:26:47;6.80;;;3.67;;
76745;SDS011;65671;49.976;20.038;2023-11-19T12:29:27;6.13;;;4.05;;
76745;SDS011;65671;49.976;20.038;2023-11-19T12:32:17;9.82;;;5.18;;
76745;SDS011;65671;49.976;20.038;2023-11-19T12:34:48;6.68;;;4.20;;
76745;SDS011;65671;49.976;20.038;2023-11-19T12:37:44;7.88;;;4.32;;
76745;SDS011;65671;49.976;20.038;2023-11-19T12:40:19;8.10;;;4.82;;
76745;SDS011;65671;49.976;20.038;2023-11-19T12:42:57;6.45;;;4.13;;
76745;SDS011;65671;49.976;20.038;2023-11-19T12:45:36;8.07;;;4.85;;
76745;SDS011;65671;49.976;20.038;2023-11-19T12:48:06;8.30;;;4.90;;
76745;SDS011;65671;49.976;20.038;2023-11-19T12:50:51;9.43;;;5.40;;
76745;SDS011;65671;49.976;20.038;2023-11-19T12:56:51;11.23;;;5.20;;
76745;SDS011;65671;49.976;20.038;2023-11-19T13:02:56;10.85;;;5.32;;
76745;SDS011;65671;49.976;20.038;2023-11-19T13:05:34;12.13;;;6.43;;
76745;SDS011;65671;49.976;20.038;2023-11-19T13:08:06;12.38;;;5.88;;
76745;SDS011;65671;49.976;20.038;2023-11-19T13:10:51;11.73;;;5.85;;
76745;SDS011;65671;49.976;20.038;2023-11-19T13:13:18;12.82;;;6.78;;
76745;SDS011;65671;49.976;20.038;2023-11-19T13:15:46;13.75;;;7.03;;
76745;SDS011;65671;49.976;20.038;2023-11-19T13:18:20;13.05;;;7.25;;
76745;SDS011;65671;49.976;20.038;2023-11-19T13:20:50;16.10;;;8.35;;
76745;SDS011;65671;49.976;20.038;2023-11-19T13:23:20;18.75;;;8.60;;
76745;SDS011;65671;49.976;20.038;2023-11-19T13:25:51;14.75;;;7.97;;
76745;SDS011;65671;49.976;20.038;2023-11-19T13:28:24;14.27;;;7.35;;
76745;SDS011;65671;49.976;20.038;2023-11-19T13:30:55;13.57;;;6.88;;
76745;SDS011;65671;49.976;20.038;2023-11-19T13:33:23;12.70;;;7.30;;
76745;SDS011;65671;49.976;20.038;2023-11-19T13:35:54;12.95;;;7.60;;
76745;SDS011;65671;49.976;20.038;2023-11-19T13:38:27;12.55;;;7.60;;
76745;SDS011;65671;49.976;20.038;2023-11-19T13:41:00;13.13;;;5.85;;
76745;SDS011;65671;49.976;20.038;2023-11-19T13:43:40;10.85;;;6.63;;
76745;SDS011;65671;49.976;20.038;2023-11-19T13:46:21;10.73;;;6.07;;
76745;SDS011;65671;49.976;20.038;2023-11-19T13:51:31;15.65;;;8.55;;
76745;SDS011;65671;49.976;20.038;2023-11-19T13:54:12;11.50;;;7.63;;
76745;SDS011;65671;49.976;20.038;2023-11-19T13:59:29;10.82;;;6.30;;
76745;SDS011;65671;49.976;20.038;2023-11-19T14:02:18;9.68;;;6.10;;
76745;SDS011;65671;49.976;20.038;2023-11-19T14:04:49;11.75;;;6.47;;
76745;SDS011;65671;49.976;20.038;2023-11-19T14:07:29;14.95;;;7.30;;
76745;SDS011;65671;49.976;20.038;2023-11-19T14:09:57;14.77;;;7.50;;
76745;SDS011;65671;49.976;20.038;2023-11-19T14:12:27;12.52;;;7.82;;
76745;SDS011;65671;49.976;20.038;2023-11-19T14:14:58;13.23;;;7.35;;
76745;SDS011;65671;49.976;20.038;2023-11-19T14:17:29;13.25;;;8.20;;
76745;SDS011;65671;49.976;20.038;2023-11-19T14:20:01;16.58;;;8.35;;
76745;SDS011;65671;49.976;20.038;2023-11-19T14:22:47;12.77;;;7.47;;
76745;SDS011;65671;49.976;20.038;2023-11-19T14:25:21;14.00;;;7.95;;
76745;SDS011;65671;49.976;20.038;2023-11-19T14:28:14;15.55;;;8.13;;
76745;SDS011;65671;49.976;20.038;2023-11-19T14:30:54;15.20;;;9.18;;
76745;SDS011;65671;49.976;20.038;2023-11-19T14:33:28;15.82;;;9.43;;
76745;SDS011;65671;49.976;20.038;2023-11-19T14:39:08;14.73;;;8.70;;
76745;SDS011;65671;49.976;20.038;2023-11-19T14:41:37;14.27;;;8.48;;
76745;SDS011;65671;49.976;20.038;2023-11-19T14:44:10;19.27;;;10.02;;
76745;SDS011;65671;49.976;20.038;2023-11-19T14:46:39;27.73;;;11.13;;
76745;SDS011;65671;49.976;20.038;2023-11-19T14:49:10;15.50;;;9.23;;
76745;SDS011;65671;49.976;20.038;2023-11-19T14:51:39;15.50;;;8.18;;
76745;SDS011;65671;49.976;20.038;2023-11-19T14:54:08;13.80;;;8.25;;
76745;SDS011;65671;49.976;20.038;2023-11-19T14:56:36;17.90;;;9.70;;
76745;SDS011;65671;49.976;20.038;2023-11-19T14:59:07;12.57;;;8.18;;
76745;SDS011;65671;49.976;20.038;2023-11-19T15:01:38;17.23;;;10.02;;
76745;SDS011;65671;49.976;20.038;2023-11-19T15:04:08;19.63;;;10.68;;
76745;SDS011;65671;49.976;20.038;2023-11-19T15:06:39;16.35;;;10.05;;
76745;SDS011;65671;49.976;20.038;2023-11-19T15:09:08;17.13;;;8.75;;
76745;SDS011;65671;49.976;20.038;2023-11-19T15:11:39;16.50;;;10.30;;
76745;SDS011;65671;49.976;20.038;2023-11-19T15:14:07;16.00;;;8.90;;
76745;SDS011;65671;49.976;20.038;2023-11-19T15:16:43;16.60;;;9.43;;
76745;SDS011;65671;49.976;20.038;2023-11-19T15:19:14;16.25;;;8.77;;
76745;SDS011;65671;49.976;20.038;2023-11-19T15:21:42;17.10;;;9.43;;
76745;SDS011;65671;49.976;20.038;2023-11-19T15:24:17;23.85;;;11.90;;
76745;SDS011;65671;49.976;20.038;2023-11-19T15:26:47;25.23;;;12.32;;
76745;SDS011;65671;49.976;20.038;2023-11-19T15:29:16;21.77;;;11.23;;
76745;SDS011;65671;49.976;20.038;2023-11-19T15:31:44;17.92;;;10.27;;
76745;SDS011;65671;49.976;20.038;2023-11-19T15:34:15;17.08;;;9.75;;
76745;SDS011;65671;49.976;20.038;2023-11-19T15:36:47;19.08;;;10.40;;
76745;SDS011;65671;49.976;20.038;2023-11-19T15:39:17;18.60;;;10.40;;
76745;SDS011;65671;49.976;20.038;2023-11-19T15:41:48;19.58;;;11.25;;
76745;SDS011;65671;49.976;20.038;2023-11-19T15:44:20;17.02;;;10.98;;
76745;SDS011;65671;49.976;20.038;2023-11-19T15:46:49;19.30;;;10.23;;
76745;SDS011;65671;49.976;20.038;2023-11-19T15:49:18;16.13;;;10.10;;
76745;SDS011;65671;49.976;20.038;2023-11-19T15:51:50;17.70;;;9.60;;
76745;SDS011;65671;49.976;20.038;2023-11-19T15:54:18;20.98;;;10.82;;
76745;SDS011;65671;49.976;20.038;2023-11-19T15:56:46;18.23;;;9.85;;
76745;SDS011;65671;49.976;20.038;2023-11-19T15:59:12;13.88;;;8.80;;
76745;SDS011;65671;49.976;20.038;2023-11-19T16:01:39;22.83;;;9.85;;
76745;SDS011;65671;49.976;20.038;2023-11-19T16:04:11;21.70;;;10.55;;
76745;SDS011;65671;49.976;20.038;2023-11-19T16:06:39;19.52;;;12.25;;
76745;SDS011;65671;49.976;20.038;2023-11-19T16:09:10;23.38;;;12.05;;
76745;SDS011;65671;49.976;20.038;2023-11-19T16:12:01;25.20;;;12.40;;
76745;SDS011;65671;49.976;20.038;2023-11-19T16:15:08;20.52;;;10.45;;
76745;SDS011;65671;49.976;20.038;2023-11-19T16:17:42;21.75;;;10.32;;
76745;SDS011;65671;49.976;20.038;2023-11-19T16:20:10;24.83;;;11.23;;
76745;SDS011;65671;49.976;20.038;2023-11-19T16:22:43;24.92;;;11.40;;
76745;SDS011;65671;49.976;20.038;2023-11-19T16:25:14;25.13;;;12.80;;
76745;SDS011;65671;49.976;20.038;2023-11-19T16:27:43;17.40;;;10.60;;
76745;SDS011;65671;49.976;20.038;2023-11-19T16:30:15;20.65;;;10.93;;
76745;SDS011;65671;49.976;20.038;2023-11-19T16:32:50;24.52;;;11.43;;
76745;SDS011;65671;49.976;20.038;2023-11-19T16:35:23;21.90;;;11.35;;
76745;SDS011;65671;49.976;20.038;2023-11-19T16:38:02;23.52;;;12.07;;
76745;SDS011;65671;49.976;20.038;2023-11-19T16:40:34;23.88;;;11.30;;
76745;SDS011;65671;49.976;20.038;2023-11-19T16:43:08;20.40;;;10.20;;
76745;SDS011;65671;49.976;20.038;2023-11-19T16:45:38;18.48;;;8.95;;
76745;SDS011;65671;49.976;20.038;2023-11-19T16:48:07;15.43;;;8.70;;
76745;SDS011;65671;49.976;20.038;2023-11-19T16:50:38;18.10;;;9.45;;
76745;SDS011;65671;49.976;20.038;2023-11-19T16:53:14;12.90;;;8.23;;
76745;SDS011;65671;49.976;20.038;2023-11-19T16:55:48;16.05;;;9.40;;
76745;SDS011;65671;49.976;20.038;2023-11-19T16:58:19;22.20;;;10.60;;
76745;SDS011;65671;49.976;20.038;2023-11-19T17:00:50;15.10;;;7.93;;
76745;SDS011;65671;49.976;20.038;2023-11-19T17:03:15;16.65;;;7.47;;
76745;SDS011;65671;49.976;20.038;2023-11-19T17:05:54;13.63;;;7.78;;
76745;SDS011;65671;49.976;20.038;2023-11-19T17:08:23;14.60;;;8.07;;
76745;SDS011;65671;49.976;20.038;2023-11-19T17:10:50;15.40;;;7.53;;
76745;SDS011;65671;49.976;20.038;2023-11-19T17:13:16;16.70;;;7.85;;
76745;SDS011;65671;49.976;20.038;2023-11-19T17:15:41;14.98;;;7.15;;
76745;SDS011;65671;49.976;20.038;2023-11-19T17:18:07;13.52;;;7.40;;
76745;SDS011;65671;49.976;20.038;2023-11-19T17:20:32;14.32;;;7.30;;
76745;SDS011;65671;49.976;20.038;2023-11-19T17:23:02;14.05;;;6.90;;
76745;SDS011;65671;49.976;20.038;2023-11-19T17:25:30;12.48;;;6.65;;
76745;SDS011;65671;49.976;20.038;2023-11-19T17:28:03;11.88;;;6.43;;
76745;SDS011;65671;49.976;20.038;2023-11-19T17:30:32;9.27;;;6.65;;
76745;SDS011;65671;49.976;20.038;2023-11-19T17:33:01;11.63;;;5.63;;
76745;SDS011;65671;49.976;20.038;2023-11-19T17:38:25;8.82;;;4.90;;
76745;SDS011;65671;49.976;20.038;2023-11-19T17:40:52;10.32;;;6.15;;
76745;SDS011;65671;49.976;20.038;2023-11-19T17:43:19;10.05;;;5.15;;
76745;SDS011;65671;49.976;20.038;2023-11-19T17:45:45;9.73;;;4.88;;